Time;durP1;ratioP1;P1;durP2;ratioP2;P2;SDS_P1;SDS_P2;PMS_P1;PMS_P2;Temp;Humidity;BMP_temperature;BMP_pressure;BME280_temperature;BME280_humidity;BME280_pressure;Samples;Min_cycle;Max_cycle;Signal;HPM_P1;HPM_P2
2023/08/19 00:03:22;;;;;;;23.35;21.20;;;;;;;21.11;100.00;99776.72;5010247;28;20068;-93
2023/08/19 00:05:49;;;;;;;22.17;20.20;;;;;;;21.10;100.00;99788.25;4995921;28;20040;-93
2023/08/19 00:08:15;;;;;;;22.95;20.85;;;;;;;21.11;100.00;99784.66;4995656;28;20420;-93
2023/08/19 00:10:41;;;;;;;23.80;21.60;;;;;;;21.10;100.00;99785.59;5012169;28;20437;-93
2023/08/19 00:13:07;;;;;;;24.55;22.35;;;;;;;21.07;100.00;99777.09;4995020;28;20076;-92
2023/08/19 00:15:34;;;;;;;24.20;21.98;;;;;;;20.94;100.00;99758.78;4995722;28;20025;-93
2023/08/19 00:18:00;;;;;;;23.98;21.88;;;;;;;21.07;100.00;99780.59;4995653;28;20428;-93
2023/08/19 00:20:28;;;;;;;24.13;21.77;;;;;;;21.01;100.00;99764.41;4995369;28;20441;-93
2023/08/19 00:22:57;;;;;;;25.77;23.48;;;;;;;21.03;100.00;99776.53;4995916;28;20421;-93
2023/08/19 00:25:26;;;;;;;23.13;20.90;;;;;;;21.02;100.00;99771.38;4996295;28;20036;-93
2023/08/19 00:27:53;;;;;;;24.40;22.08;;;;;;;20.99;100.00;99777.78;5013042;28;20038;-93
2023/08/19 00:30:19;;;;;;;22.83;20.58;;;;;;;20.94;100.00;99772.03;5012814;28;20037;-93
2023/08/19 00:32:47;;;;;;;24.35;22.15;;;;;;;20.89;100.00;99769.78;5012900;28;20034;-94
2023/08/19 00:35:13;;;;;;;23.10;20.88;;;;;;;20.89;100.00;99771.59;5012889;28;20385;-93
2023/08/19 00:37:39;;;;;;;23.70;21.45;;;;;;;20.85;100.00;99773.69;5012765;28;20037;-93
2023/08/19 00:40:07;;;;;;;24.02;21.73;;;;;;;20.78;100.00;99766.44;5012719;28;20421;-93
2023/08/19 00:42:33;;;;;;;23.40;21.20;;;;;;;20.79;100.00;99760.16;5012427;28;20030;-93
2023/08/19 00:44:59;;;;;;;22.90;20.80;;;;;;;20.83;100.00;99774.81;5012708;28;20603;-92
2023/08/19 00:47:26;;;;;;;23.42;21.27;;;;;;;20.83;100.00;99767.69;5012310;28;20034;-93
2023/08/19 00:49:52;;;;;;;23.85;21.60;;;;;;;20.78;100.00;99761.13;5012525;28;20045;-93
2023/08/19 00:52:19;;;;;;;23.55;21.27;;;;;;;20.76;100.00;99755.97;5012228;28;20083;-94
2023/08/19 00:54:46;;;;;;;22.42;20.42;;;;;;;20.79;100.00;99757.50;5012406;28;20386;-94
2023/08/19 00:57:15;;;;;;;23.35;21.25;;;;;;;20.78;100.00;99755.84;5012171;28;20371;-94
2023/08/19 00:59:41;;;;;;;24.73;22.42;;;;;;;20.79;100.00;99752.22;5012400;28;20028;-93
2023/08/19 01:02:07;;;;;;;24.67;22.38;;;;;;;20.75;100.00;99750.81;5012334;28;20030;-94
2023/08/19 01:04:34;;;;;;;23.33;21.17;;;;;;;20.72;100.00;99745.78;5011925;28;20044;-93
2023/08/19 01:07:09;;;;;;;23.42;21.20;;;;;;;20.63;100.00;99735.00;5012183;28;20445;-95
2023/08/19 01:09:58;;;;;;;25.15;22.70;;;;;;;20.71;100.00;99746.75;5011990;28;20064;-93
2023/08/19 01:12:47;;;;;;;23.27;21.08;;;;;;;20.71;100.00;99749.41;5011782;28;20026;-93
2023/08/19 01:15:18;;;;;;;24.92;22.58;;;;;;;20.55;100.00;99737.50;5012226;28;20366;-93
2023/08/19 01:17:46;;;;;;;23.85;21.70;;;;;;;20.64;100.00;99749.91;5012112;28;20491;-93
2023/08/19 01:20:13;;;;;;;24.52;22.20;;;;;;;20.62;100.00;99749.22;5012117;28;20413;-93
2023/08/19 01:23:02;;;;;;;25.02;22.63;;;;;;;20.65;100.00;99751.63;5012271;28;20385;-93
2023/08/19 01:25:29;;;;;;;23.98;21.58;;;;;;;20.58;100.00;99746.97;5011172;28;20437;-93
2023/08/19 01:27:55;;;;;;;26.40;23.92;;;;;;;20.67;100.00;99762.06;5011834;28;20033;-94
2023/08/19 01:30:23;;;;;;;25.38;22.98;;;;;;;20.65;100.00;99753.44;5011560;28;20104;-92
2023/08/19 01:32:50;;;;;;;25.63;23.30;;;;;;;20.63;100.00;99750.91;5011839;28;20030;-93
2023/08/19 01:35:17;;;;;;;27.20;24.55;;;;;;;20.65;100.00;99754.25;5011496;28;20030;-93
2023/08/19 01:37:43;;;;;;;26.58;24.05;;;;;;;20.41;100.00;99722.78;5011773;28;20060;-93
2023/08/19 01:40:11;;;;;;;28.17;25.38;;;;;;;20.52;100.00;99744.84;5011734;28;20037;-93
2023/08/19 01:42:38;;;;;;;25.27;22.98;;;;;;;20.55;100.00;99745.44;5011902;28;20092;-93
2023/08/19 01:45:05;;;;;;;28.00;25.10;;;;;;;20.62;100.00;99754.53;5011657;28;20083;-93
2023/08/19 01:47:32;;;;;;;26.42;23.88;;;;;;;20.63;100.00;99763.28;5011300;28;20504;-93
2023/08/19 01:49:58;;;;;;;25.45;23.15;;;;;;;20.58;100.00;99758.41;5011426;28;20030;-93
2023/08/19 01:52:24;;;;;;;29.33;26.52;;;;;;;20.53;100.00;99747.38;5011292;28;20125;-93
2023/08/19 01:54:50;;;;;;;28.67;25.80;;;;;;;20.61;100.00;99765.25;5011436;28;20412;-93
2023/08/19 01:57:17;;;;;;;28.35;25.65;;;;;;;20.54;100.00;99751.69;5011089;28;20033;-93
2023/08/19 01:59:43;;;;;;;25.80;23.40;;;;;;;20.57;100.00;99754.09;5011302;28;20033;-93
2023/08/19 02:02:09;;;;;;;28.73;25.92;;;;;;;20.50;100.00;99745.00;5011323;28;20057;-93
2023/08/19 02:04:35;;;;;;;27.52;25.00;;;;;;;20.56;100.00;99756.84;5010778;28;20535;-93
2023/08/19 02:07:02;;;;;;;29.38;26.50;;;;;;;20.49;100.00;99751.25;5011445;28;20061;-93
2023/08/19 02:09:29;;;;;;;28.33;25.73;;;;;;;20.48;100.00;99749.59;5010929;28;20034;-93
2023/08/19 02:11:55;;;;;;;28.33;25.70;;;;;;;20.51;100.00;99751.94;5011195;28;20112;-93
2023/08/19 02:14:22;;;;;;;28.33;25.73;;;;;;;20.47;100.00;99758.44;5011181;28;20432;-93
2023/08/19 02:16:48;;;;;;;28.27;25.52;;;;;;;20.48;100.00;99754.00;5011036;28;20029;-93
2023/08/19 02:19:14;;;;;;;28.38;25.73;;;;;;;20.49;100.00;99753.91;5010990;28;20088;-93
2023/08/19 02:21:40;;;;;;;32.38;29.05;;;;;;;20.47;100.00;99760.25;5010840;28;20053;-93
2023/08/19 02:24:07;;;;;;;29.00;26.17;;;;;;;20.44;100.00;99762.22;5011004;28;20061;-93
2023/08/19 02:26:33;;;;;;;29.20;26.23;;;;;;;20.40;100.00;99746.75;5010908;28;20056;-93
2023/08/19 02:28:59;;;;;;;29.15;26.45;;;;;;;20.47;100.00;99758.44;5011239;28;20437;-92
2023/08/19 02:31:26;;;;;;;29.40;26.50;;;;;;;20.40;100.00;99746.75;5010652;28;20113;-93
2023/08/19 02:33:52;;;;;;;29.05;26.23;;;;;;;20.46;100.00;99753.28;5011063;28;20049;-95
2023/08/19 02:36:19;;;;;;;32.45;29.25;;;;;;;20.36;100.00;99747.97;5010259;28;20355;-93
2023/08/19 02:38:45;;;;;;;29.52;26.70;;;;;;;20.35;100.00;99751.56;5010777;28;20033;-94
2023/08/19 02:41:11;;;;;;;30.20;27.23;;;;;;;20.33;100.00;99749.06;5010717;28;20022;-92
2023/08/19 02:43:37;;;;;;;32.38;29.38;;;;;;;20.28;100.00;99751.25;5010456;28;20527;-93
2023/08/19 02:46:04;;;;;;;30.80;27.80;;;;;;;20.29;100.00;99752.94;5010676;28;20032;-93
2023/08/19 02:48:31;;;;;;;32.42;29.33;;;;;;;20.27;100.00;99748.72;5010702;28;20381;-92
2023/08/19 02:50:57;;;;;;;32.45;29.25;;;;;;;20.14;100.00;99733.94;5010706;28;20437;-93
2023/08/19 02:53:23;;;;;;;30.65;27.63;;;;;;;20.21;100.00;99750.09;5010583;28;20452;-93
2023/08/19 02:55:53;;;;;;;30.38;27.27;;;;;;;20.12;100.00;99733.22;5010691;28;20389;-93
2023/08/19 02:58:19;;;;;;;29.50;26.67;;;;;;;20.08;100.00;99738.88;5010516;28;20048;-93
2023/08/19 03:00:46;;;;;;;30.48;27.55;;;;;;;20.08;100.00;99738.88;5010554;28;20057;-93
2023/08/19 03:03:13;;;;;;;28.75;25.95;;;;;;;20.14;100.00;99755.09;5010457;28;20137;-93
2023/08/19 03:05:40;;;;;;;30.13;27.23;;;;;;;20.15;100.00;99759.41;5010448;28;20037;-93
2023/08/19 03:08:07;;;;;;;30.90;27.80;;;;;;;20.06;100.00;99739.03;5010540;28;20088;-93
2023/08/19 03:10:38;;;;;;;29.00;26.30;;;;;;;20.12;100.00;99750.88;5010706;28;20509;-93
2023/08/19 03:13:06;;;;;;;27.87;25.07;;;;;;;20.17;100.00;99765.38;5010530;28;20030;-92
2023/08/19 03:15:33;;;;;;;29.60;26.85;;;;;;;20.15;100.00;99758.56;5010165;28;20285;-93
2023/08/19 03:17:59;;;;;;;29.10;26.40;;;;;;;20.15;100.00;99761.22;5009138;28;20128;-93
2023/08/19 03:20:25;;;;;;;27.88;25.20;;;;;;;20.14;100.00;99756.88;4992749;28;20124;-93
2023/08/19 03:22:52;;;;;;;26.45;24.00;;;;;;;20.17;100.00;99760.09;4992858;28;20034;-93
2023/08/19 03:25:18;;;;;;;28.42;25.52;;;;;;;20.15;100.00;99758.56;4992930;28;20401;-93
2023/08/19 03:27:44;;;;;;;29.13;26.45;;;;;;;20.11;100.00;99743.94;4992571;28;20378;-93
2023/08/19 03:30:11;;;;;;;29.92;27.02;;;;;;;20.17;100.00;99749.53;4992762;28;20537;-92
2023/08/19 03:32:37;;;;;;;29.83;26.92;;;;;;;20.09;100.00;99749.31;4992547;28;20069;-93
2023/08/19 03:35:03;;;;;;;30.83;27.88;;;;;;;20.15;100.00;99754.13;4993031;28;20029;-93
2023/08/19 03:37:29;;;;;;;28.00;25.38;;;;;;;20.15;100.00;99758.56;4992513;28;20460;-93
2023/08/19 03:39:55;;;;;;;29.75;26.88;;;;;;;20.12;100.00;99753.53;4992688;28;20025;-93
2023/08/19 03:42:22;;;;;;;28.60;25.80;;;;;;;20.12;100.00;99756.19;4992282;28;20416;-93
2023/08/19 03:44:48;;;;;;;29.63;26.83;;;;;;;20.13;100.00;99755.19;4992979;28;20437;-93
2023/08/19 03:47:14;;;;;;;29.67;26.83;;;;;;;20.07;100.00;99759.22;4992692;28;20413;-93
2023/08/19 03:49:40;;;;;;;27.58;24.83;;;;;;;20.08;100.00;99770.63;4994687;28;20034;-92
2023/08/19 03:52:08;;;;;;;31.08;28.25;;;;;;;19.94;100.00;99746.19;4996017;28;20078;-93
2023/08/19 03:54:35;;;;;;;30.13;27.20;;;;;;;20.07;100.00;99768.94;4996072;28;20038;-93
2023/08/19 03:57:01;;;;;;;31.60;28.70;;;;;;;19.97;100.00;99753.00;5013371;28;20030;-93
2023/08/19 03:59:28;;;;;;;33.53;30.33;;;;;;;20.02;100.00;99777.28;5013272;28;20030;-93
2023/08/19 04:01:54;;;;;;;31.98;28.83;;;;;;;19.99;100.00;99769.59;5013614;28;20025;-93
2023/08/19 04:04:20;;;;;;;41.47;37.22;;;;;;;20.01;100.00;99778.22;5013416;28;20089;-93
2023/08/19 04:06:46;;;;;;;55.47;49.58;;;;;;;20.01;100.00;99780.03;5013532;28;20381;-93
2023/08/19 04:09:13;;;;;;;60.60;54.10;;;;;;;19.96;100.00;99774.28;5013263;28;20474;-94
2023/08/19 04:11:39;;;;;;;68.82;61.72;;;;;;;19.98;100.00;99780.31;5013017;28;20022;-93
2023/08/19 04:14:05;;;;;;;47.45;42.60;;;;;;;19.99;100.00;99774.03;5013485;28;20478;-93
2023/08/19 04:16:32;;;;;;;36.10;32.60;;;;;;;19.97;100.00;99770.66;5012973;28;20030;-93
2023/08/19 04:18:59;;;;;;;36.50;33.00;;;;;;;20.10;100.00;99774.81;5013357;28;20477;-94
2023/08/19 04:21:25;;;;;;;34.92;31.45;;;;;;;20.24;100.00;99776.28;5012842;28;20030;-92
2023/08/19 04:23:52;;;;;;;34.28;30.98;;;;;;;20.30;100.00;99777.56;5013007;28;20029;-92
2023/08/19 04:26:18;;;;;;;32.55;29.35;;;;;;;20.39;100.00;99776.78;5012944;28;20034;-93
2023/08/19 04:28:44;;;;;;;31.42;28.42;;;;;;;20.43;100.00;99783.50;5012717;28;20157;-93
2023/08/19 04:31:12;;;;;;;41.45;37.25;;;;;;;20.43;100.00;99778.19;5013062;28;20030;-93
2023/08/19 04:33:38;;;;;;;42.85;38.28;;;;;;;20.46;100.00;99779.75;5012621;28;20034;-93
2023/08/19 04:36:04;;;;;;;67.55;60.55;;;;;;;20.51;100.00;99774.94;5013146;28;20382;-93
2023/08/19 04:38:31;;;;;;;66.65;59.67;;;;;;;20.57;100.00;99782.34;5012336;28;20065;-93
2023/08/19 04:41:00;;;;;;;56.58;50.88;;;;;;;20.61;100.00;99770.53;5012779;28;20436;-93
2023/08/19 04:43:27;;;;;;;50.10;45.13;;;;;;;20.75;100.00;99785.22;5012736;28;20416;-93
2023/08/19 04:45:54;;;;;;;35.42;32.13;;;;;;;20.88;100.00;99785.81;5012577;28;20168;-93
2023/08/19 04:48:21;;;;;;;30.00;27.08;;;;;;;20.95;100.00;99786.97;5012586;28;20124;-93
2023/08/19 04:50:49;;;;;;;30.27;27.30;;;;;;;20.99;100.00;99771.66;5012409;28;20104;-93
2023/08/19 04:53:15;;;;;;;32.42;29.25;;;;;;;21.30;100.00;99788.31;5011064;28;20038;-92
2023/08/19 04:55:42;;;;;;;28.48;25.80;;;;;;;21.94;100.00;99793.09;4994605;28;20393;-93
2023/08/19 04:58:08;;;;;;;28.98;26.05;;;;;;;22.78;100.00;99795.88;4994898;28;20483;-94
2023/08/19 05:00:35;;;;;;;27.30;24.70;;;;;;;23.49;100.00;99805.03;4994600;28;20399;-93
2023/08/19 05:03:03;;;;;;;28.20;25.42;;;;;;;23.63;100.00;99793.88;4994654;28;20092;-93
2023/08/19 05:05:29;;;;;;;26.80;24.40;;;;;;;23.64;100.00;99804.38;4994564;28;20042;-94
2023/08/19 05:07:55;;;;;;;26.58;24.05;;;;;;;23.50;100.00;99796.06;4994753;28;20034;-93
2023/08/19 05:10:21;;;;;;;25.17;22.85;;;;;;;23.39;100.00;99784.69;4994720;28;20036;-93
2023/08/19 05:12:48;;;;;;;25.40;23.10;;;;;;;23.46;100.00;99806.16;4994452;28;20084;-93
2023/08/19 05:15:14;;;;;;;25.48;23.10;;;;;;;23.82;100.00;99807.06;4994637;28;20046;-93
2023/08/19 05:17:40;;;;;;;25.73;23.30;;;;;;;24.61;100.00;99814.16;4994193;28;20042;-93
2023/08/19 05:20:07;;;;;;;23.55;21.48;;;;;;;25.48;100.00;99812.19;4994588;28;20114;-93
2023/08/19 05:22:33;;;;;;;24.17;22.08;;;;;;;26.12;100.00;99812.44;4994148;28;20584;-93
2023/08/19 05:24:59;;;;;;;25.20;22.90;;;;;;;26.07;100.00;99820.94;4994420;28;20034;-93
2023/08/19 05:27:25;;;;;;;21.65;19.63;;;;;;;25.86;100.00;99817.94;4994440;28;20398;-93
2023/08/19 05:29:52;;;;;;;25.35;22.73;;;;;;;25.71;100.00;99817.75;4994667;28;20390;-93
2023/08/19 05:32:18;;;;;;;24.98;22.77;;;;;;;25.48;100.00;99816.69;5011940;28;20370;-93
2023/08/19 05:34:44;;;;;;;24.73;22.27;;;;;;;25.43;100.00;99819.84;5011717;28;20022;-93
2023/08/19 05:37:10;;;;;;;22.75;20.73;;;;;;;25.84;100.00;99827.94;5011720;28;20485;-93
2023/08/19 05:39:36;;;;;;;22.98;20.98;;;;;;;26.42;100.00;99823.41;5011483;28;20500;-93
2023/08/19 05:42:02;;;;;;;25.00;22.70;;;;;;;26.52;100.00;99824.09;5011758;28;20370;-92
2023/08/19 05:44:29;;;;;;;24.00;21.80;;;;;;;26.03;100.00;99819.59;5011783;28;20030;-93
2023/08/19 05:46:55;;;;;;;24.40;21.85;;;;;;;25.69;100.00;99819.72;5011637;28;20045;-93
2023/08/19 05:49:21;;;;;;;20.67;18.88;;;;;;;25.58;100.00;99818.22;5011556;28;20133;-93
2023/08/19 05:51:47;;;;;;;21.80;19.90;;;;;;;25.65;100.00;99818.38;5011258;28;20065;-93
2023/08/19 05:54:13;;;;;;;21.40;19.50;;;;;;;25.86;100.00;99821.44;5011345;28;20030;-93
2023/08/19 05:56:39;;;;;;;20.63;18.70;;;;;;;26.04;100.00;99826.63;5011242;28;20030;-93
2023/08/19 05:59:05;;;;;;;21.58;19.65;;;;;;;26.28;100.00;99833.78;5011426;28;20444;-93
2023/08/19 06:01:31;;;;;;;21.85;19.85;;;;;;;26.41;100.00;99824.41;5011135;28;20025;-92
2023/08/19 06:03:57;;;;;;;20.55;18.83;;;;;;;26.51;100.00;99831.28;5011189;28;20061;-93
2023/08/19 06:06:23;;;;;;;21.85;19.95;;;;;;;26.63;100.00;99829.06;5011434;28;20069;-92
2023/08/19 06:08:49;;;;;;;21.23;19.33;;;;;;;26.66;100.00;99841.28;5010974;28;20036;-93
2023/08/19 06:11:15;;;;;;;22.52;20.40;;;;;;;26.80;100.00;99835.22;5010346;28;20038;-92
2023/08/19 06:13:40;;;;;;;19.67;17.88;;;;;;;26.95;100.00;99820.13;5009609;28;20030;-92
2023/08/19 06:16:06;;;;;;;20.48;18.73;;;;;;;27.16;100.00;99840.13;5010328;28;20026;-91
2023/08/19 06:18:32;;;;;;;20.40;18.50;;;;;;;27.28;100.00;99842.25;5010444;28;20084;-92
2023/08/19 06:20:59;;;;;;;20.98;18.88;;;;;;;27.42;100.00;99839.84;5010556;28;20030;-92
2023/08/19 06:23:25;;;;;;;20.38;18.52;;;;;;;27.58;100.00;99834.38;5011007;28;20393;-91
2023/08/19 06:25:52;;;;;;;20.30;18.58;;;;;;;27.82;100.00;99838.78;5010522;28;20026;-92
2023/08/19 06:28:18;;;;;;;19.85;18.15;;;;;;;28.00;100.00;99841.16;5009084;28;20447;-92
2023/08/19 06:30:45;;;;;;;21.73;19.73;;;;;;;28.18;100.00;99830.13;4992586;28;20034;-92
2023/08/19 06:33:12;;;;;;;21.17;19.27;;;;;;;28.38;100.00;99838.53;4992861;28;20038;-92
2023/08/19 06:35:38;;;;;;;20.95;19.02;;;;;;;28.56;99.00;99844.34;4993232;28;20058;-92
2023/08/19 06:38:33;;;;;;;20.55;18.65;;;;;;;28.73;97.67;99845.84;4993192;28;20097;-92
2023/08/19 06:41:11;;;;;;;19.67;17.80;;;;;;;28.96;98.58;99850.31;4992874;28;20038;-92
2023/08/19 06:43:40;;;;;;;18.02;16.50;;;;;;;29.07;97.28;99833.75;4992868;28;20125;-93
2023/08/19 06:46:07;;;;;;;18.08;16.50;;;;;;;29.31;94.99;99844.19;4993538;28;20589;-91
2023/08/19 06:48:34;;;;;;;20.65;18.88;;;;;;;29.43;94.35;99836.47;4992960;28;20128;-92
2023/08/19 06:51:02;;;;;;;18.85;17.25;;;;;;;29.70;94.26;99851.03;5009615;28;20053;-93
2023/08/19 06:53:28;;;;;;;17.70;16.20;;;;;;;29.86;94.09;99852.66;4993212;28;20046;-92
2023/08/19 06:56:11;;;;;;;17.88;16.23;;;;;;;29.97;93.83;99835.22;4993052;28;20477;-91
2023/08/19 06:58:41;;;;;;;18.00;16.48;;;;;;;30.27;93.75;99855.53;4994465;28;20046;-92
2023/08/19 07:01:14;;;;;;;19.07;17.37;;;;;;;30.46;90.84;99843.25;5010833;28;20034;-92
2023/08/19 07:03:40;;;;;;;17.42;15.93;;;;;;;30.70;90.32;99855.44;5010237;28;20061;-92
2023/08/19 07:06:07;;;;;;;17.27;15.82;;;;;;;30.94;88.82;99858.72;5010672;28;20439;-92
2023/08/19 07:08:39;;;;;;;17.67;16.15;;;;;;;31.22;85.33;99864.00;5010527;28;20389;-92
2023/08/19 07:11:05;;;;;;;17.60;15.85;;;;;;;31.68;86.41;99869.59;5010784;28;20128;-91
2023/08/19 07:13:31;;;;;;;16.20;14.90;;;;;;;32.21;84.26;99858.09;5010506;28;20524;-92
2023/08/19 07:16:03;;;;;;;15.82;14.43;;;;;;;32.71;80.98;99869.28;5010189;28;20026;-92
2023/08/19 07:18:34;;;;;;;16.92;15.50;;;;;;;32.93;77.66;99859.91;5010493;28;20503;-92
2023/08/19 07:21:01;;;;;;;15.23;13.95;;;;;;;33.40;77.41;99868.66;5010398;28;20038;-92
2023/08/19 07:23:27;;;;;;;15.65;14.10;;;;;;;34.06;74.75;99867.50;5010868;28;20383;-92
2023/08/19 07:25:54;;;;;;;15.15;13.95;;;;;;;34.66;74.50;99865.13;5013913;28;20485;-92
2023/08/19 07:28:23;;;;;;;14.80;13.65;;;;;;;35.59;72.35;99883.03;5014575;28;20389;-92
2023/08/19 07:30:50;;;;;;;14.60;13.38;;;;;;;36.36;69.95;99864.16;5013938;28;20481;-92
2023/08/19 07:33:16;;;;;;;14.52;13.32;;;;;;;37.04;67.68;99873.63;5014098;28;20068;-92
2023/08/19 07:35:45;;;;;;;13.45;12.50;;;;;;;37.74;69.28;99878.00;5013668;28;20481;-92
2023/08/19 07:38:11;;;;;;;14.05;12.82;;;;;;;38.30;64.51;99872.69;5014146;28;20492;-92
2023/08/19 07:40:36;;;;;;;14.10;13.00;;;;;;;38.91;64.93;99869.03;5013906;28;20029;-92
2023/08/19 07:43:02;;;;;;;12.75;11.65;;;;;;;39.49;64.67;99879.56;5013832;28;20128;-92
2023/08/19 07:45:28;;;;;;;12.65;11.75;;;;;;;39.78;65.61;99875.53;5013813;28;20053;-93
2023/08/19 07:47:53;;;;;;;12.55;11.55;;;;;;;40.21;64.20;99864.75;5013559;28;20037;-93
2023/08/19 07:50:19;;;;;;;12.23;11.32;;;;;;;40.65;64.85;99868.88;5013945;28;20068;-92
2023/08/19 07:52:44;;;;;;;12.18;11.27;;;;;;;40.77;62.13;99870.56;5013472;28;20026;-92
2023/08/19 07:55:10;;;;;;;12.88;11.77;;;;;;;41.02;63.75;99868.00;5013764;28;20109;-93
2023/08/19 07:57:36;;;;;;;12.48;11.45;;;;;;;41.19;59.75;99878.72;5013638;28;20045;-92
2023/08/19 08:00:02;;;;;;;12.93;11.93;;;;;;;41.04;61.66;99875.91;5013407;28;20021;-92
2023/08/19 08:02:28;;;;;;;13.23;12.02;;;;;;;40.50;60.72;99876.94;5014134;28;20042;-92
2023/08/19 08:04:54;;;;;;;12.70;11.60;;;;;;;40.53;62.26;99881.88;5016463;28;20040;-92
2023/08/19 08:07:20;;;;;;;12.60;11.48;;;;;;;40.56;63.97;99875.09;5016787;28;20037;-93
2023/08/19 08:09:46;;;;;;;12.82;11.73;;;;;;;40.50;62.99;99882.41;5017040;28;20428;-92
2023/08/19 08:12:12;;;;;;;13.52;12.38;;;;;;;40.28;63.83;99881.69;5016849;28;20037;-93
2023/08/19 08:14:38;;;;;;;13.75;12.40;;;;;;;39.66;63.53;99885.78;5016670;28;20033;-92
2023/08/19 08:17:03;;;;;;;13.93;12.70;;;;;;;38.62;65.55;99875.66;5015514;28;20037;-94
2023/08/19 08:19:29;;;;;;;14.48;13.20;;;;;;;37.59;67.20;99881.25;5015164;28;20040;-92
2023/08/19 08:21:54;;;;;;;13.05;12.10;;;;;;;36.65;69.12;99877.88;5015098;28;20096;-93
2023/08/19 08:24:20;;;;;;;14.85;13.60;;;;;;;35.79;68.14;99887.38;5015257;28;20797;-93
2023/08/19 08:26:46;;;;;;;14.30;13.20;;;;;;;34.98;72.92;99884.81;5012518;28;20021;-92
2023/08/19 08:29:12;;;;;;;16.20;14.82;;;;;;;34.28;71.26;99880.66;5016432;28;20086;-92
2023/08/19 08:31:37;;;;;;;15.50;14.10;;;;;;;33.55;73.65;99895.44;5016475;28;20030;-93
2023/08/19 08:34:03;;;;;;;14.45;13.10;;;;;;;33.10;77.13;99884.56;5015684;28;20430;-93
2023/08/19 08:36:28;;;;;;;16.45;15.05;;;;;;;32.74;77.13;99882.34;5015347;28;20373;-93
2023/08/19 08:38:53;;;;;;;15.18;13.80;;;;;;;32.44;79.99;99884.66;5016146;28;20464;-93
2023/08/19 08:41:20;;;;;;;15.38;14.07;;;;;;;32.05;78.32;99886.28;5016304;28;20041;-92
2023/08/19 08:43:49;;;;;;;14.68;13.45;;;;;;;31.83;82.45;99879.38;5016012;28;20035;-92
2023/08/19 08:46:19;;;;;;;15.98;14.57;;;;;;;31.72;84.73;99878.09;5016198;28;20060;-93
2023/08/19 08:48:46;;;;;;;15.43;14.18;;;;;;;31.60;83.26;99882.41;5014440;28;20032;-92
2023/08/19 08:51:14;;;;;;;15.95;14.65;;;;;;;31.46;83.49;99884.22;5014790;28;20025;-92
2023/08/19 08:53:39;;;;;;;16.38;14.88;;;;;;;31.23;82.43;99871.06;5011698;28;20037;-93
2023/08/19 08:56:06;;;;;;;16.23;14.82;;;;;;;31.01;82.66;99883.78;5014812;28;20021;-93
2023/08/19 08:58:31;;;;;;;15.88;14.57;;;;;;;30.97;86.77;99890.56;5015429;28;20025;-92
2023/08/19 09:00:58;;;;;;;15.93;14.43;;;;;;;30.98;86.80;99884.19;5015008;28;20033;-93
2023/08/19 09:03:28;;;;;;;17.25;15.55;;;;;;;30.74;85.21;99885.47;5015085;28;20052;-93
2023/08/19 09:05:58;;;;;;;17.73;16.17;;;;;;;30.63;86.47;99888.66;5014970;28;20036;-93
2023/08/19 09:08:41;;;;;;;16.35;15.05;;;;;;;30.51;89.67;99880.34;5015144;28;20551;-93
2023/08/19 09:11:13;;;;;;;16.45;15.00;;;;;;;30.64;92.48;99885.81;5015393;28;20036;-93
2023/08/19 09:13:42;;;;;;;15.98;14.60;;;;;;;30.73;90.41;99890.03;5014947;28;20029;-92
2023/08/19 09:16:11;;;;;;;17.17;15.73;;;;;;;30.74;92.29;99878.25;5015220;28;20438;-92
2023/08/19 09:18:39;;;;;;;15.75;14.43;;;;;;;30.87;91.68;99874.81;5014865;28;20445;-93
2023/08/19 09:21:06;;;;;;;17.15;15.70;;;;;;;30.95;87.22;99893.47;5014958;28;20029;-94
2023/08/19 09:23:32;;;;;;;16.73;15.18;;;;;;;30.97;89.40;99901.34;5015496;28;20491;-94
2023/08/19 09:25:59;;;;;;;16.45;15.15;;;;;;;30.89;86.09;99890.72;5015286;28;20064;-93
2023/08/19 09:28:24;;;;;;;17.08;15.68;;;;;;;30.87;86.52;99890.13;5013646;28;20390;-93
2023/08/19 09:30:50;;;;;;;16.10;14.50;;;;;;;30.80;84.23;99895.44;5015229;28;20027;-92
2023/08/19 09:33:20;;;;;;;17.42;15.80;;;;;;;30.43;85.28;99873.25;5015278;28;20084;-91
2023/08/19 09:35:46;;;;;;;16.42;15.20;;;;;;;30.53;89.73;99897.09;5014840;28;20039;-92
2023/08/19 09:38:22;;;;;;;15.48;14.20;;;;;;;30.54;91.68;99886.13;5014844;28;20053;-92
2023/08/19 09:41:02;;;;;;;16.10;14.80;;;;;;;30.57;88.88;99885.75;5014801;28;20269;-92
2023/08/19 09:43:28;;;;;;;15.57;14.45;;;;;;;30.63;91.58;99883.28;5015077;28;20045;-92
2023/08/19 09:45:56;;;;;;;16.77;15.13;;;;;;;30.61;84.54;99882.66;5013965;28;20097;-92
2023/08/19 09:48:23;;;;;;;16.35;14.95;;;;;;;30.52;85.10;99876.63;5014638;28;20033;-92
2023/08/19 09:50:49;;;;;;;15.48;14.27;;;;;;;30.42;84.34;99876.94;5014601;28;20029;-92
2023/08/19 09:53:16;;;;;;;15.80;14.45;;;;;;;30.28;86.60;99881.38;5014699;28;20052;-92
2023/08/19 09:55:47;;;;;;;15.13;13.82;;;;;;;30.31;89.34;99874.78;5014960;28;20505;-92
2023/08/19 09:58:13;;;;;;;15.43;14.20;;;;;;;30.44;92.00;99882.97;5014769;28;20033;-92
2023/08/19 10:00:39;;;;;;;15.68;14.35;;;;;;;30.52;84.87;99882.00;5014703;28;20385;-92
2023/08/19 10:03:06;;;;;;;15.63;14.25;;;;;;;30.51;86.80;99880.34;5014247;28;20053;-91
2023/08/19 10:05:38;;;;;;;14.93;13.73;;;;;;;30.46;86.27;99882.75;5014609;28;20045;-92
2023/08/19 10:08:07;;;;;;;15.60;14.20;;;;;;;30.44;84.35;99877.59;5014265;28;20623;-92
2023/08/19 10:10:37;;;;;;;16.13;14.82;;;;;;;30.37;85.04;99874.00;5014579;28;20044;-92
2023/08/19 10:13:03;;;;;;;14.93;13.52;;;;;;;30.28;81.73;99883.25;5014155;28;20114;-92
2023/08/19 10:15:33;;;;;;;14.07;12.93;;;;;;;30.12;84.77;99860.13;5014395;28;20250;-92
2023/08/19 10:18:03;;;;;;;14.75;13.55;;;;;;;30.18;85.84;99862.09;5014107;28;20033;-93
2023/08/19 10:20:32;;;;;;;14.20;13.00;;;;;;;30.36;89.30;99869.66;5014267;28;20445;-92
2023/08/19 10:23:01;;;;;;;14.23;13.02;;;;;;;30.51;85.01;99872.28;5014027;28;20026;-92
2023/08/19 10:25:28;;;;;;;14.70;13.50;;;;;;;30.64;88.43;99867.00;4990083;28;20073;-92
2023/08/19 10:28:12;;;;;;;13.85;12.55;;;;;;;30.74;88.39;99867.50;4973690;28;20046;-92
2023/08/19 10:30:38;;;;;;;13.40;12.40;;;;;;;30.85;87.57;99865.28;4973933;28;20125;-92
2023/08/19 10:33:25;;;;;;;14.05;13.05;;;;;;;30.87;90.39;99864.03;4973618;28;20422;-92
2023/08/19 10:35:57;;;;;;;13.25;12.25;;;;;;;30.99;90.62;99869.72;4973557;28;20068;-92
2023/08/19 10:38:23;;;;;;;12.75;11.75;;;;;;;31.04;89.15;99867.25;4990035;28;20038;-92
2023/08/19 10:41:02;;;;;;;13.50;12.35;;;;;;;31.05;82.77;99867.03;4973645;28;20022;-92
2023/08/19 10:43:47;;;;;;;12.52;11.32;;;;;;;30.80;79.06;99869.41;4974145;28;20415;-93
2023/08/19 10:46:17;;;;;;;12.32;11.23;;;;;;;30.65;80.07;99868.66;4973922;28;20081;-91
2023/08/19 10:48:46;;;;;;;12.27;11.18;;;;;;;30.62;86.48;99860.97;4973655;28;20038;-93
2023/08/19 10:51:11;;;;;;;13.25;11.95;;;;;;;30.69;83.70;99866.41;4973700;28;20038;-92
2023/08/19 10:53:37;;;;;;;12.02;10.93;;;;;;;30.74;84.36;99861.28;4973626;28;20038;-93
2023/08/19 10:56:12;;;;;;;13.43;12.32;;;;;;;30.86;79.83;99866.94;4973232;28;20066;-93
2023/08/19 10:58:37;;;;;;;11.98;10.98;;;;;;;30.87;81.94;99861.34;4976107;28;20124;-93
2023/08/19 11:01:04;;;;;;;12.25;11.23;;;;;;;30.97;84.64;99864.53;4977410;28;20058;-93
2023/08/19 11:03:30;;;;;;;12.10;11.00;;;;;;;31.03;84.75;99854.84;5007686;28;20132;-92
2023/08/19 11:05:56;;;;;;;11.60;10.63;;;;;;;31.09;81.78;99859.41;5017626;28;20113;-92
2023/08/19 11:08:22;;;;;;;11.38;10.55;;;;;;;31.11;82.90;99853.84;5017745;28;20394;-92
2023/08/19 11:10:48;;;;;;;11.55;10.57;;;;;;;31.18;82.25;99852.84;5017481;28;20029;-92
2023/08/19 11:13:15;;;;;;;11.30;10.40;;;;;;;31.14;79.99;99845.34;5016601;28;20035;-92
2023/08/19 11:15:40;;;;;;;12.00;11.00;;;;;;;31.09;78.78;99847.81;5016598;28;20052;-92